sensor_id;sensor_type;location;lat;lon;timestamp;temperature;humidity
19538;DHT22;9914;51.008;4.300;2023-06-22T00:00:56;21.90;99.90
19538;DHT22;9914;51.008;4.300;2023-06-22T00:03:23;22.10;99.90
19538;DHT22;9914;51.008;4.300;2023-06-22T00:05:50;22.20;99.90
19538;DHT22;9914;51.008;4.300;2023-06-22T00:08:16;22.10;99.90
19538;DHT22;9914;51.008;4.300;2023-06-22T00:10:42;22.00;99.90
19538;DHT22;9914;51.008;4.300;2023-06-22T00:13:09;21.90;99.90
19538;DHT22;9914;51.008;4.300;2023-06-22T00:15:37;21.90;99.90
19538;DHT22;9914;51.008;4.300;2023-06-22T00:18:03;21.90;99.90
19538;DHT22;9914;51.008;4.300;2023-06-22T00:20:29;21.80;99.90
19538;DHT22;9914;51.008;4.300;2023-06-22T00:22:56;21.80;99.90
19538;DHT22;9914;51.008;4.300;2023-06-22T00:25:22;21.90;99.90
19538;DHT22;9914;51.008;4.300;2023-06-22T00:27:48;21.70;99.90
19538;DHT22;9914;51.008;4.300;2023-06-22T00:30:15;21.60;99.90
19538;DHT22;9914;51.008;4.300;2023-06-22T00:32:41;21.40;99.90
19538;DHT22;9914;51.008;4.300;2023-06-22T00:35:07;21.40;99.90
19538;DHT22;9914;51.008;4.300;2023-06-22T00:37:32;21.30;99.90
19538;DHT22;9914;51.008;4.300;2023-06-22T00:39:58;21.30;99.90
19538;DHT22;9914;51.008;4.300;2023-06-22T00:42:24;21.50;99.90
19538;DHT22;9914;51.008;4.300;2023-06-22T00:44:49;21.40;99.90
19538;DHT22;9914;51.008;4.300;2023-06-22T00:47:17;21.30;99.90
19538;DHT22;9914;51.008;4.300;2023-06-22T00:49:43;21.40;99.90
19538;DHT22;9914;51.008;4.300;2023-06-22T00:52:09;21.40;99.90
19538;DHT22;9914;51.008;4.300;2023-06-22T00:54:40;21.30;99.90
19538;DHT22;9914;51.008;4.300;2023-06-22T00:57:12;21.30;99.90
19538;DHT22;9914;51.008;4.300;2023-06-22T00:59:45;21.20;99.90
19538;DHT22;9914;51.008;4.300;2023-06-22T01:02:11;21.00;99.90
19538;DHT22;9914;51.008;4.300;2023-06-22T01:04:38;21.00;99.90
19538;DHT22;9914;51.008;4.300;2023-06-22T01:07:29;20.90;99.90
19538;DHT22;9914;51.008;4.300;2023-06-22T01:10:16;21.00;99.90
19538;DHT22;9914;51.008;4.300;2023-06-22T01:12:48;21.00;99.90
19538;DHT22;9914;51.008;4.300;2023-06-22T01:15:21;20.90;99.90
19538;DHT22;9914;51.008;4.300;2023-06-22T01:17:49;20.90;99.90
19538;DHT22;9914;51.008;4.300;2023-06-22T01:20:17;21.00;99.90
19538;DHT22;9914;51.008;4.300;2023-06-22T01:25:36;20.90;99.90
19538;DHT22;9914;51.008;4.300;2023-06-22T01:28:23;21.00;99.90
19538;DHT22;9914;51.008;4.300;2023-06-22T01:30:49;21.00;99.90
19538;DHT22;9914;51.008;4.300;2023-06-22T01:33:36;20.80;99.90
19538;DHT22;9914;51.008;4.300;2023-06-22T01:36:03;20.90;99.90
19538;DHT22;9914;51.008;4.300;2023-06-22T01:38:30;20.90;99.90
19538;DHT22;9914;51.008;4.300;2023-06-22T01:40:57;21.00;99.90
19538;DHT22;9914;51.008;4.300;2023-06-22T01:43:25;20.80;99.90
19538;DHT22;9914;51.008;4.300;2023-06-22T01:45:51;20.80;99.90
19538;DHT22;9914;51.008;4.300;2023-06-22T01:48:18;20.80;99.90
19538;DHT22;9914;51.008;4.300;2023-06-22T01:50:45;20.80;99.90
19538;DHT22;9914;51.008;4.300;2023-06-22T01:53:11;20.90;99.90
19538;DHT22;9914;51.008;4.300;2023-06-22T01:55:36;20.90;99.90
19538;DHT22;9914;51.008;4.300;2023-06-22T01:58:02;20.90;99.90
19538;DHT22;9914;51.008;4.300;2023-06-22T02:00:31;21.00;99.90
19538;DHT22;9914;51.008;4.300;2023-06-22T02:03:05;21.00;99.90
19538;DHT22;9914;51.008;4.300;2023-06-22T02:05:38;20.90;99.90
19538;DHT22;9914;51.008;4.300;2023-06-22T02:08:09;20.80;99.90
19538;DHT22;9914;51.008;4.300;2023-06-22T02:10:37;20.90;99.90
19538;DHT22;9914;51.008;4.300;2023-06-22T02:13:06;20.80;99.90
19538;DHT22;9914;51.008;4.300;2023-06-22T02:15:32;20.70;99.90
19538;DHT22;9914;51.008;4.300;2023-06-22T02:17:57;20.60;99.90
19538;DHT22;9914;51.008;4.300;2023-06-22T02:20:24;20.50;99.90
19538;DHT22;9914;51.008;4.300;2023-06-22T02:22:50;20.50;99.90
19538;DHT22;9914;51.008;4.300;2023-06-22T02:25:15;20.50;99.90
19538;DHT22;9914;51.008;4.300;2023-06-22T02:27:41;20.60;99.90
19538;DHT22;9914;51.008;4.300;2023-06-22T02:30:09;20.60;99.90
19538;DHT22;9914;51.008;4.300;2023-06-22T02:32:36;20.60;99.90
19538;DHT22;9914;51.008;4.300;2023-06-22T02:35:02;20.50;99.90
19538;DHT22;9914;51.008;4.300;2023-06-22T02:37:32;20.40;99.90
19538;DHT22;9914;51.008;4.300;2023-06-22T02:39:57;20.50;99.90
19538;DHT22;9914;51.008;4.300;2023-06-22T02:42:23;20.40;99.90
19538;DHT22;9914;51.008;4.300;2023-06-22T02:44:49;20.30;99.90
19538;DHT22;9914;51.008;4.300;2023-06-22T02:47:16;20.20;99.90
19538;DHT22;9914;51.008;4.300;2023-06-22T02:49:41;20.40;99.90
19538;DHT22;9914;51.008;4.300;2023-06-22T02:52:07;20.10;99.90
19538;DHT22;9914;51.008;4.300;2023-06-22T02:54:33;20.00;99.90
19538;DHT22;9914;51.008;4.300;2023-06-22T02:56:59;20.00;99.90
19538;DHT22;9914;51.008;4.300;2023-06-22T02:59:28;20.00;99.90
19538;DHT22;9914;51.008;4.300;2023-06-22T03:01:53;20.10;99.90
19538;DHT22;9914;51.008;4.300;2023-06-22T03:04:20;20.10;99.90
19538;DHT22;9914;51.008;4.300;2023-06-22T03:06:45;20.10;99.90
19538;DHT22;9914;51.008;4.300;2023-06-22T03:09:16;20.00;99.90
19538;DHT22;9914;51.008;4.300;2023-06-22T03:11:42;20.10;99.90
19538;DHT22;9914;51.008;4.300;2023-06-22T03:14:08;20.00;99.90
19538;DHT22;9914;51.008;4.300;2023-06-22T03:16:33;20.00;99.90
19538;DHT22;9914;51.008;4.300;2023-06-22T03:18:59;20.10;99.90
19538;DHT22;9914;51.008;4.300;2023-06-22T03:21:28;20.10;99.90
19538;DHT22;9914;51.008;4.300;2023-06-22T03:23:54;20.00;99.90
19538;DHT22;9914;51.008;4.300;2023-06-22T03:26:19;20.00;99.90
19538;DHT22;9914;51.008;4.300;2023-06-22T03:28:45;20.00;99.90
19538;DHT22;9914;51.008;4.300;2023-06-22T03:31:11;20.00;99.90
19538;DHT22;9914;51.008;4.300;2023-06-22T03:33:37;20.00;99.90
19538;DHT22;9914;51.008;4.300;2023-06-22T03:36:03;20.00;99.90
19538;DHT22;9914;51.008;4.300;2023-06-22T03:38:28;19.90;99.90
19538;DHT22;9914;51.008;4.300;2023-06-22T03:40:54;19.90;99.90
19538;DHT22;9914;51.008;4.300;2023-06-22T03:43:20;19.90;99.90
19538;DHT22;9914;51.008;4.300;2023-06-22T03:45:45;19.90;99.90
19538;DHT22;9914;51.008;4.300;2023-06-22T03:48:12;19.90;99.90
19538;DHT22;9914;51.008;4.300;2023-06-22T03:50:37;19.90;99.90
19538;DHT22;9914;51.008;4.300;2023-06-22T03:53:03;20.00;99.90
19538;DHT22;9914;51.008;4.300;2023-06-22T03:55:28;20.00;99.90
19538;DHT22;9914;51.008;4.300;2023-06-22T03:57:54;19.80;99.90
19538;DHT22;9914;51.008;4.300;2023-06-22T04:00:25;19.80;99.90
19538;DHT22;9914;51.008;4.300;2023-06-22T04:02:51;19.80;99.90
19538;DHT22;9914;51.008;4.300;2023-06-22T04:05:16;19.70;99.90
19538;DHT22;9914;51.008;4.300;2023-06-22T04:07:45;19.80;99.90
19538;DHT22;9914;51.008;4.300;2023-06-22T04:10:10;19.90;99.90
19538;DHT22;9914;51.008;4.300;2023-06-22T04:12:36;19.90;99.90
19538;DHT22;9914;51.008;4.300;2023-06-22T04:15:02;19.90;99.90
19538;DHT22;9914;51.008;4.300;2023-06-22T04:17:27;20.00;99.90
19538;DHT22;9914;51.008;4.300;2023-06-22T04:19:53;20.00;99.90
19538;DHT22;9914;51.008;4.300;2023-06-22T04:22:18;20.00;99.90
19538;DHT22;9914;51.008;4.300;2023-06-22T04:24:44;20.00;99.90
19538;DHT22;9914;51.008;4.300;2023-06-22T04:27:10;20.20;99.90
19538;DHT22;9914;51.008;4.300;2023-06-22T04:29:36;20.20;99.90
19538;DHT22;9914;51.008;4.300;2023-06-22T04:32:01;20.20;99.90
19538;DHT22;9914;51.008;4.300;2023-06-22T04:34:31;20.30;99.90
19538;DHT22;9914;51.008;4.300;2023-06-22T04:36:57;20.40;99.90
19538;DHT22;9914;51.008;4.300;2023-06-22T04:39:23;20.50;99.90
19538;DHT22;9914;51.008;4.300;2023-06-22T04:41:49;20.60;99.90
19538;DHT22;9914;51.008;4.300;2023-06-22T04:44:19;20.60;99.90
19538;DHT22;9914;51.008;4.300;2023-06-22T04:46:52;20.70;99.90
19538;DHT22;9914;51.008;4.300;2023-06-22T04:49:28;20.80;99.90
19538;DHT22;9914;51.008;4.300;2023-06-22T04:52:13;20.80;99.90
19538;DHT22;9914;51.008;4.300;2023-06-22T04:54:40;20.70;99.90
19538;DHT22;9914;51.008;4.300;2023-06-22T04:57:13;20.80;99.90
19538;DHT22;9914;51.008;4.300;2023-06-22T04:59:40;20.90;99.90
19538;DHT22;9914;51.008;4.300;2023-06-22T05:02:07;21.00;99.90
19538;DHT22;9914;51.008;4.300;2023-06-22T05:04:34;21.00;99.90
19538;DHT22;9914;51.008;4.300;2023-06-22T05:07:01;21.10;99.90
19538;DHT22;9914;51.008;4.300;2023-06-22T05:09:28;21.30;99.90
19538;DHT22;9914;51.008;4.300;2023-06-22T05:11:53;21.40;99.90
19538;DHT22;9914;51.008;4.300;2023-06-22T05:14:19;21.60;99.90
19538;DHT22;9914;51.008;4.300;2023-06-22T05:16:45;21.60;99.90
19538;DHT22;9914;51.008;4.300;2023-06-22T05:19:11;21.80;99.90
19538;DHT22;9914;51.008;4.300;2023-06-22T05:21:37;21.90;99.90
19538;DHT22;9914;51.008;4.300;2023-06-22T05:24:03;22.00;99.90
19538;DHT22;9914;51.008;4.300;2023-06-22T05:26:30;22.10;99.90
19538;DHT22;9914;51.008;4.300;2023-06-22T05:28:57;22.10;99.90
19538;DHT22;9914;51.008;4.300;2023-06-22T05:31:23;22.20;99.90
19538;DHT22;9914;51.008;4.300;2023-06-22T05:33:51;22.30;99.90
19538;DHT22;9914;51.008;4.300;2023-06-22T05:36:17;22.40;99.90
19538;DHT22;9914;51.008;4.300;2023-06-22T05:38:44;22.50;99.90
19538;DHT22;9914;51.008;4.300;2023-06-22T05:41:09;22.50;99.90
19538;DHT22;9914;51.008;4.300;2023-06-22T05:43:36;22.40;99.90
19538;DHT22;9914;51.008;4.300;2023-06-22T05:46:02;22.50;99.90
19538;DHT22;9914;51.008;4.300;2023-06-22T05:48:28;22.50;99.90
19538;DHT22;9914;51.008;4.300;2023-06-22T05:50:54;22.40;99.90
19538;DHT22;9914;51.008;4.300;2023-06-22T05:53:19;22.30;99.90
19538;DHT22;9914;51.008;4.300;2023-06-22T05:55:46;22.30;99.90
19538;DHT22;9914;51.008;4.300;2023-06-22T05:58:12;22.10;99.90
19538;DHT22;9914;51.008;4.300;2023-06-22T06:00:39;22.20;99.90
19538;DHT22;9914;51.008;4.300;2023-06-22T06:03:06;21.90;99.90
19538;DHT22;9914;51.008;4.300;2023-06-22T06:05:33;22.00;99.90
19538;DHT22;9914;51.008;4.300;2023-06-22T06:08:00;22.00;99.90
19538;DHT22;9914;51.008;4.300;2023-06-22T06:10:27;22.10;99.90
19538;DHT22;9914;51.008;4.300;2023-06-22T06:12:55;22.10;99.90
19538;DHT22;9914;51.008;4.300;2023-06-22T06:15:20;21.90;99.90
19538;DHT22;9914;51.008;4.300;2023-06-22T06:20:12;21.80;99.90
19538;DHT22;9914;51.008;4.300;2023-06-22T06:22:38;21.90;99.90
19538;DHT22;9914;51.008;4.300;2023-06-22T06:25:05;21.80;99.90
19538;DHT22;9914;51.008;4.300;2023-06-22T06:27:32;21.70;99.90
19538;DHT22;9914;51.008;4.300;2023-06-22T06:29:57;21.80;99.90
19538;DHT22;9914;51.008;4.300;2023-06-22T06:32:23;21.80;99.90
19538;DHT22;9914;51.008;4.300;2023-06-22T06:34:49;22.00;99.90
19538;DHT22;9914;51.008;4.300;2023-06-22T06:37:15;21.70;99.90
19538;DHT22;9914;51.008;4.300;2023-06-22T06:39:41;21.70;99.90
19538;DHT22;9914;51.008;4.300;2023-06-22T06:42:06;21.70;99.90
19538;DHT22;9914;51.008;4.300;2023-06-22T06:44:32;21.50;99.90
19538;DHT22;9914;51.008;4.300;2023-06-22T06:46:57;21.70;99.90
19538;DHT22;9914;51.008;4.300;2023-06-22T06:49:23;21.70;99.90
19538;DHT22;9914;51.008;4.300;2023-06-22T06:51:49;22.00;99.90
19538;DHT22;9914;51.008;4.300;2023-06-22T06:54:16;22.00;99.90
19538;DHT22;9914;51.008;4.300;2023-06-22T06:56:42;22.00;99.90
19538;DHT22;9914;51.008;4.300;2023-06-22T06:59:14;21.70;99.90
19538;DHT22;9914;51.008;4.300;2023-06-22T07:01:39;21.70;99.90
19538;DHT22;9914;51.008;4.300;2023-06-22T07:04:05;22.10;99.90
19538;DHT22;9914;51.008;4.300;2023-06-22T07:06:30;22.40;99.90
19538;DHT22;9914;51.008;4.300;2023-06-22T07:08:57;22.50;99.90
19538;DHT22;9914;51.008;4.300;2023-06-22T07:11:23;22.50;99.90
19538;DHT22;9914;51.008;4.300;2023-06-22T07:13:48;22.70;99.90
19538;DHT22;9914;51.008;4.300;2023-06-22T07:16:14;22.60;99.90
19538;DHT22;9914;51.008;4.300;2023-06-22T07:18:40;22.40;99.90
19538;DHT22;9914;51.008;4.300;2023-06-22T07:21:05;22.50;99.90
19538;DHT22;9914;51.008;4.300;2023-06-22T07:23:32;22.60;99.90
19538;DHT22;9914;51.008;4.300;2023-06-22T07:25:58;22.70;99.90
19538;DHT22;9914;51.008;4.300;2023-06-22T07:28:27;23.00;99.90
19538;DHT22;9914;51.008;4.300;2023-06-22T07:30:53;23.20;99.90
19538;DHT22;9914;51.008;4.300;2023-06-22T07:33:19;23.30;99.90
19538;DHT22;9914;51.008;4.300;2023-06-22T07:35:45;23.30;99.90
19538;DHT22;9914;51.008;4.300;2023-06-22T07:38:12;23.20;99.90
19538;DHT22;9914;51.008;4.300;2023-06-22T07:40:40;23.20;99.90
19538;DHT22;9914;51.008;4.300;2023-06-22T07:43:07;23.70;99.90
19538;DHT22;9914;51.008;4.300;2023-06-22T07:45:32;24.20;99.90
19538;DHT22;9914;51.008;4.300;2023-06-22T07:48:00;24.50;99.90
19538;DHT22;9914;51.008;4.300;2023-06-22T07:50:26;24.30;99.90
19538;DHT22;9914;51.008;4.300;2023-06-22T07:52:51;24.10;99.90
19538;DHT22;9914;51.008;4.300;2023-06-22T07:55:18;23.60;99.90
19538;DHT22;9914;51.008;4.300;2023-06-22T07:57:44;23.70;99.90
19538;DHT22;9914;51.008;4.300;2023-06-22T08:00:10;23.90;99.90
19538;DHT22;9914;51.008;4.300;2023-06-22T08:02:41;24.10;99.90
19538;DHT22;9914;51.008;4.300;2023-06-22T08:05:07;23.90;99.90
19538;DHT22;9914;51.008;4.300;2023-06-22T08:07:37;23.90;99.90
19538;DHT22;9914;51.008;4.300;2023-06-22T08:10:05;23.90;99.90
19538;DHT22;9914;51.008;4.300;2023-06-22T08:12:30;23.60;99.90
19538;DHT22;9914;51.008;4.300;2023-06-22T08:14:56;23.60;99.90
19538;DHT22;9914;51.008;4.300;2023-06-22T08:17:23;23.60;99.90
19538;DHT22;9914;51.008;4.300;2023-06-22T08:19:49;23.80;99.90
19538;DHT22;9914;51.008;4.300;2023-06-22T08:22:15;23.70;99.90
19538;DHT22;9914;51.008;4.300;2023-06-22T08:24:41;23.70;99.90
19538;DHT22;9914;51.008;4.300;2023-06-22T08:27:07;23.60;99.90
19538;DHT22;9914;51.008;4.300;2023-06-22T08:29:34;23.50;99.90
19538;DHT22;9914;51.008;4.300;2023-06-22T08:32:00;23.30;99.90
19538;DHT22;9914;51.008;4.300;2023-06-22T08:34:26;23.10;99.90
19538;DHT22;9914;51.008;4.300;2023-06-22T08:36:53;23.20;99.90
19538;DHT22;9914;51.008;4.300;2023-06-22T08:39:19;23.30;99.90
19538;DHT22;9914;51.008;4.300;2023-06-22T08:41:46;23.30;99.90
19538;DHT22;9914;51.008;4.300;2023-06-22T08:44:12;23.30;99.90
19538;DHT22;9914;51.008;4.300;2023-06-22T08:46:38;23.20;99.90
19538;DHT22;9914;51.008;4.300;2023-06-22T08:49:06;22.90;99.90
19538;DHT22;9914;51.008;4.300;2023-06-22T08:51:32;23.00;99.90
19538;DHT22;9914;51.008;4.300;2023-06-22T08:53:57;23.00;99.90
19538;DHT22;9914;51.008;4.300;2023-06-22T08:56:23;23.10;99.90
19538;DHT22;9914;51.008;4.300;2023-06-22T08:58:48;22.90;99.90
19538;DHT22;9914;51.008;4.300;2023-06-22T09:01:14;22.70;99.90
19538;DHT22;9914;51.008;4.300;2023-06-22T09:03:41;22.80;99.90
19538;DHT22;9914;51.008;4.300;2023-06-22T09:06:07;23.00;99.90
19538;DHT22;9914;51.008;4.300;2023-06-22T09:08:35;23.20;99.90
19538;DHT22;9914;51.008;4.300;2023-06-22T09:11:00;23.10;99.90
19538;DHT22;9914;51.008;4.300;2023-06-22T09:13:27;22.90;99.90
19538;DHT22;9914;51.008;4.300;2023-06-22T09:15:53;22.90;99.90
19538;DHT22;9914;51.008;4.300;2023-06-22T09:18:19;23.10;99.90
19538;DHT22;9914;51.008;4.300;2023-06-22T09:20:45;23.40;99.90
19538;DHT22;9914;51.008;4.300;2023-06-22T09:23:11;23.40;99.90
19538;DHT22;9914;51.008;4.300;2023-06-22T09:25:36;23.30;99.90
19538;DHT22;9914;51.008;4.300;2023-06-22T09:28:02;23.30;99.90
19538;DHT22;9914;51.008;4.300;2023-06-22T09:30:28;23.20;99.90
19538;DHT22;9914;51.008;4.300;2023-06-22T09:32:53;23.20;99.90
19538;DHT22;9914;51.008;4.300;2023-06-22T09:35:19;23.30;99.90
19538;DHT22;9914;51.008;4.300;2023-06-22T09:37:45;23.50;99.90
19538;DHT22;9914;51.008;4.300;2023-06-22T09:40:11;23.60;99.90
19538;DHT22;9914;51.008;4.300;2023-06-22T09:42:38;23.50;99.90
19538;DHT22;9914;51.008;4.300;2023-06-22T09:45:05;23.60;99.90
19538;DHT22;9914;51.008;4.300;2023-06-22T09:47:31;23.60;99.90
19538;DHT22;9914;51.008;4.300;2023-06-22T09:49:56;23.80;99.90
19538;DHT22;9914;51.008;4.300;2023-06-22T09:52:25;24.00;99.90
19538;DHT22;9914;51.008;4.300;2023-06-22T09:54:51;23.70;99.90
19538;DHT22;9914;51.008;4.300;2023-06-22T09:57:17;23.70;99.90
19538;DHT22;9914;51.008;4.300;2023-06-22T09:59:42;23.90;99.90
19538;DHT22;9914;51.008;4.300;2023-06-22T10:02:08;24.00;99.90
19538;DHT22;9914;51.008;4.300;2023-06-22T10:04:34;24.10;99.90
19538;DHT22;9914;51.008;4.300;2023-06-22T10:07:00;24.00;99.90
19538;DHT22;9914;51.008;4.300;2023-06-22T10:09:26;24.10;99.90
19538;DHT22;9914;51.008;4.300;2023-06-22T10:11:52;24.20;99.90
19538;DHT22;9914;51.008;4.300;2023-06-22T10:14:18;24.10;99.90
19538;DHT22;9914;51.008;4.300;2023-06-22T10:16:44;24.00;99.90
19538;DHT22;9914;51.008;4.300;2023-06-22T10:19:10;23.90;99.90
19538;DHT22;9914;51.008;4.300;2023-06-22T10:21:36;23.90;99.90
19538;DHT22;9914;51.008;4.300;2023-06-22T10:24:01;23.60;99.90
19538;DHT22;9914;51.008;4.300;2023-06-22T10:26:33;23.60;99.90
19538;DHT22;9914;51.008;4.300;2023-06-22T10:28:59;23.50;99.90
19538;DHT22;9914;51.008;4.300;2023-06-22T10:31:25;23.00;99.90
19538;DHT22;9914;51.008;4.300;2023-06-22T10:33:51;22.60;99.90
19538;DHT22;9914;51.008;4.300;2023-06-22T10:36:16;22.40;99.90
19538;DHT22;9914;51.008;4.300;2023-06-22T10:38:42;21.50;99.90
19538;DHT22;9914;51.008;4.300;2023-06-22T10:41:08;21.10;99.90
19538;DHT22;9914;51.008;4.300;2023-06-22T10:43:33;20.70;99.90
19538;DHT22;9914;51.008;4.300;2023-06-22T10:45:59;20.50;99.90
19538;DHT22;9914;51.008;4.300;2023-06-22T10:48:24;20.00;99.90
19538;DHT22;9914;51.008;4.300;2023-06-22T10:50:50;19.60;99.90
19538;DHT22;9914;51.008;4.300;2023-06-22T10:53:16;19.30;99.90
19538;DHT22;9914;51.008;4.300;2023-06-22T10:55:41;19.20;99.90
19538;DHT22;9914;51.008;4.300;2023-06-22T10:58:07;19.20;99.90
19538;DHT22;9914;51.008;4.300;2023-06-22T11:00:32;19.00;99.90
19538;DHT22;9914;51.008;4.300;2023-06-22T11:02:58;19.00;99.90
19538;DHT22;9914;51.008;4.300;2023-06-22T11:05:24;18.90;99.90
19538;DHT22;9914;51.008;4.300;2023-06-22T11:07:49;18.80;99.90
19538;DHT22;9914;51.008;4.300;2023-06-22T11:10:16;18.80;99.90
19538;DHT22;9914;51.008;4.300;2023-06-22T11:12:42;18.80;99.90
19538;DHT22;9914;51.008;4.300;2023-06-22T11:15:08;18.80;99.90
19538;DHT22;9914;51.008;4.300;2023-06-22T11:17:34;18.80;99.90
19538;DHT22;9914;51.008;4.300;2023-06-22T11:20:00;18.80;99.90
19538;DHT22;9914;51.008;4.300;2023-06-22T11:22:26;18.80;99.90
19538;DHT22;9914;51.008;4.300;2023-06-22T11:24:52;18.70;99.90
19538;DHT22;9914;51.008;4.300;2023-06-22T11:27:17;18.70;99.90
19538;DHT22;9914;51.008;4.300;2023-06-22T11:29:43;18.70;99.90
19538;DHT22;9914;51.008;4.300;2023-06-22T11:32:09;18.70;99.90
19538;DHT22;9914;51.008;4.300;2023-06-22T11:34:34;18.80;99.90
19538;DHT22;9914;51.008;4.300;2023-06-22T11:37:00;18.80;99.90
19538;DHT22;9914;51.008;4.300;2023-06-22T11:39:26;19.00;99.90
19538;DHT22;9914;51.008;4.300;2023-06-22T11:41:51;19.10;99.90
19538;DHT22;9914;51.008;4.300;2023-06-22T11:44:17;19.10;99.90
19538;DHT22;9914;51.008;4.300;2023-06-22T11:46:42;19.00;99.90
19538;DHT22;9914;51.008;4.300;2023-06-22T11:49:08;19.10;99.90
19538;DHT22;9914;51.008;4.300;2023-06-22T11:51:34;19.30;99.90
19538;DHT22;9914;51.008;4.300;2023-06-22T11:53:59;19.30;99.90
19538;DHT22;9914;51.008;4.300;2023-06-22T11:56:25;19.50;99.90
19538;DHT22;9914;51.008;4.300;2023-06-22T11:58:51;19.70;99.90
19538;DHT22;9914;51.008;4.300;2023-06-22T12:01:17;19.80;99.90
19538;DHT22;9914;51.008;4.300;2023-06-22T12:03:42;20.10;99.90
19538;DHT22;9914;51.008;4.300;2023-06-22T12:06:09;20.10;99.90
19538;DHT22;9914;51.008;4.300;2023-06-22T12:08:35;20.10;99.90
19538;DHT22;9914;51.008;4.300;2023-06-22T12:11:00;19.90;99.90
19538;DHT22;9914;51.008;4.300;2023-06-22T12:13:26;19.70;99.90
19538;DHT22;9914;51.008;4.300;2023-06-22T12:15:51;19.80;99.90
19538;DHT22;9914;51.008;4.300;2023-06-22T12:18:20;19.80;99.90
19538;DHT22;9914;51.008;4.300;2023-06-22T12:20:49;20.00;99.90
19538;DHT22;9914;51.008;4.300;2023-06-22T12:23:15;20.00;99.90
19538;DHT22;9914;51.008;4.300;2023-06-22T12:25:41;19.80;99.90
19538;DHT22;9914;51.008;4.300;2023-06-22T12:28:06;19.90;99.90
19538;DHT22;9914;51.008;4.300;2023-06-22T12:30:35;19.90;99.90
19538;DHT22;9914;51.008;4.300;2023-06-22T12:33:00;19.90;99.90
19538;DHT22;9914;51.008;4.300;2023-06-22T12:35:26;19.80;99.90
19538;DHT22;9914;51.008;4.300;2023-06-22T12:37:51;19.80;99.90
19538;DHT22;9914;51.008;4.300;2023-06-22T12:40:18;19.70;99.90
19538;DHT22;9914;51.008;4.300;2023-06-22T12:42:45;19.60;99.90
19538;DHT22;9914;51.008;4.300;2023-06-22T12:45:10;19.50;99.90
19538;DHT22;9914;51.008;4.300;2023-06-22T12:47:36;19.40;99.90
19538;DHT22;9914;51.008;4.300;2023-06-22T12:50:02;19.40;99.90
19538;DHT22;9914;51.008;4.300;2023-06-22T12:52:30;19.30;99.90
19538;DHT22;9914;51.008;4.300;2023-06-22T12:54:55;19.20;99.90
19538;DHT22;9914;51.008;4.300;2023-06-22T12:57:21;19.10;99.90
19538;DHT22;9914;51.008;4.300;2023-06-22T12:59:47;19.10;99.90
19538;DHT22;9914;51.008;4.300;2023-06-22T13:02:12;19.00;99.90
19538;DHT22;9914;51.008;4.300;2023-06-22T13:04:38;18.80;99.90
19538;DHT22;9914;51.008;4.300;2023-06-22T13:07:04;18.70;99.90
19538;DHT22;9914;51.008;4.300;2023-06-22T13:09:30;18.70;99.90
19538;DHT22;9914;51.008;4.300;2023-06-22T13:11:56;18.80;99.90
19538;DHT22;9914;51.008;4.300;2023-06-22T13:14:22;18.70;99.90
19538;DHT22;9914;51.008;4.300;2023-06-22T13:16:47;18.90;99.90
19538;DHT22;9914;51.008;4.300;2023-06-22T13:19:13;18.90;99.90
19538;DHT22;9914;51.008;4.300;2023-06-22T13:21:39;18.70;99.90
19538;DHT22;9914;51.008;4.300;2023-06-22T13:24:05;18.60;99.90
19538;DHT22;9914;51.008;4.300;2023-06-22T13:26:31;18.50;99.90
19538;DHT22;9914;51.008;4.300;2023-06-22T13:28:57;18.40;99.90
19538;DHT22;9914;51.008;4.300;2023-06-22T13:31:23;18.50;99.90
19538;DHT22;9914;51.008;4.300;2023-06-22T13:33:48;18.40;99.90
19538;DHT22;9914;51.008;4.300;2023-06-22T13:36:17;18.30;99.90
19538;DHT22;9914;51.008;4.300;2023-06-22T13:38:43;18.30;99.90
19538;DHT22;9914;51.008;4.300;2023-06-22T13:41:08;18.20;99.90
19538;DHT22;9914;51.008;4.300;2023-06-22T13:43:34;18.30;99.90
19538;DHT22;9914;51.008;4.300;2023-06-22T13:46:00;18.20;99.90
19538;DHT22;9914;51.008;4.300;2023-06-22T13:48:25;18.30;99.90
19538;DHT22;9914;51.008;4.300;2023-06-22T13:50:52;18.30;99.90
19538;DHT22;9914;51.008;4.300;2023-06-22T13:53:17;18.30;99.90
19538;DHT22;9914;51.008;4.300;2023-06-22T13:55:43;18.30;99.90
19538;DHT22;9914;51.008;4.300;2023-06-22T13:58:09;18.30;99.90
19538;DHT22;9914;51.008;4.300;2023-06-22T14:00:34;18.30;99.90
19538;DHT22;9914;51.008;4.300;2023-06-22T14:03:00;18.20;99.90
19538;DHT22;9914;51.008;4.300;2023-06-22T14:05:25;18.10;99.90
19538;DHT22;9914;51.008;4.300;2023-06-22T14:07:52;18.10;99.90
19538;DHT22;9914;51.008;4.300;2023-06-22T14:10:17;18.10;99.90
19538;DHT22;9914;51.008;4.300;2023-06-22T14:12:43;18.20;99.90
19538;DHT22;9914;51.008;4.300;2023-06-22T14:15:10;18.10;99.90
19538;DHT22;9914;51.008;4.300;2023-06-22T14:17:36;18.20;99.90
19538;DHT22;9914;51.008;4.300;2023-06-22T14:20:02;18.10;99.90
19538;DHT22;9914;51.008;4.300;2023-06-22T14:22:28;18.10;99.90
19538;DHT22;9914;51.008;4.300;2023-06-22T14:24:55;18.10;99.90
19538;DHT22;9914;51.008;4.300;2023-06-22T14:27:23;18.10;99.90
19538;DHT22;9914;51.008;4.300;2023-06-22T14:29:48;18.20;99.90
19538;DHT22;9914;51.008;4.300;2023-06-22T14:32:14;18.30;99.90
19538;DHT22;9914;51.008;4.300;2023-06-22T14:34:40;18.30;99.90
19538;DHT22;9914;51.008;4.300;2023-06-22T14:37:09;18.30;99.90
19538;DHT22;9914;51.008;4.300;2023-06-22T14:39:40;18.40;99.90
19538;DHT22;9914;51.008;4.300;2023-06-22T14:42:06;18.50;99.90
19538;DHT22;9914;51.008;4.300;2023-06-22T14:44:32;18.50;99.90
19538;DHT22;9914;51.008;4.300;2023-06-22T14:46:58;18.50;99.90
19538;DHT22;9914;51.008;4.300;2023-06-22T14:49:24;18.50;99.90
19538;DHT22;9914;51.008;4.300;2023-06-22T14:51:50;18.50;99.90
19538;DHT22;9914;51.008;4.300;2023-06-22T14:54:15;18.60;99.90
19538;DHT22;9914;51.008;4.300;2023-06-22T14:56:41;18.70;99.90
19538;DHT22;9914;51.008;4.300;2023-06-22T14:59:07;18.70;99.90
19538;DHT22;9914;51.008;4.300;2023-06-22T15:01:34;18.70;99.90
19538;DHT22;9914;51.008;4.300;2023-06-22T15:03:59;18.90;99.90
19538;DHT22;9914;51.008;4.300;2023-06-22T15:06:25;19.00;99.90
19538;DHT22;9914;51.008;4.300;2023-06-22T15:08:52;19.10;99.90
19538;DHT22;9914;51.008;4.300;2023-06-22T15:11:18;19.00;99.90
19538;DHT22;9914;51.008;4.300;2023-06-22T15:13:44;19.10;99.90
19538;DHT22;9914;51.008;4.300;2023-06-22T15:16:09;19.00;99.90
19538;DHT22;9914;51.008;4.300;2023-06-22T15:18:36;19.00;99.90
19538;DHT22;9914;51.008;4.300;2023-06-22T15:21:03;19.00;99.90
19538;DHT22;9914;51.008;4.300;2023-06-22T15:23:29;19.00;99.90
19538;DHT22;9914;51.008;4.300;2023-06-22T15:25:57;19.10;99.90
19538;DHT22;9914;51.008;4.300;2023-06-22T15:28:23;19.10;99.90
19538;DHT22;9914;51.008;4.300;2023-06-22T15:30:49;19.10;99.90
19538;DHT22;9914;51.008;4.300;2023-06-22T15:33:15;19.10;99.90
19538;DHT22;9914;51.008;4.300;2023-06-22T15:35:41;19.10;99.90
19538;DHT22;9914;51.008;4.300;2023-06-22T15:38:07;19.20;99.90
19538;DHT22;9914;51.008;4.300;2023-06-22T15:40:32;19.20;99.90
19538;DHT22;9914;51.008;4.300;2023-06-22T15:42:58;19.10;99.90
19538;DHT22;9914;51.008;4.300;2023-06-22T15:45:25;19.20;99.90